createdAt,value
2017-09-22T00:01:03.269Z,0
2017-09-22T00:02:19.316Z,0
2017-09-22T00:03:35.134Z,0
2017-09-22T00:04:51.086Z,0
2017-09-22T00:06:07.602Z,0
2017-09-22T00:07:22.634Z,0
2017-09-22T00:08:37.659Z,0
2017-09-22T00:09:53.171Z,0
2017-09-22T00:11:09.324Z,0
2017-09-22T00:12:24.058Z,0
2017-09-22T00:13:40.325Z,0
2017-09-22T00:14:56.566Z,0
2017-09-22T00:16:13.895Z,0
2017-09-22T00:17:30.627Z,0
2017-09-22T00:18:46.264Z,0
2017-09-22T00:20:02.739Z,0
2017-09-22T00:21:17.664Z,0
2017-09-22T00:22:33.434Z,0
2017-09-22T00:23:49.263Z,0
2017-09-22T00:25:04.202Z,0
2017-09-22T00:26:20.531Z,0
2017-09-22T00:37:31.161Z,0
2017-09-22T00:38:44.702Z,0
2017-09-22T00:39:58.550Z,0
2017-09-22T00:41:12.714Z,0
2017-09-22T00:42:26.817Z,0
2017-09-22T00:44:13.178Z,0
2017-09-22T00:45:39.710Z,0
2017-09-22T00:46:53.650Z,0
2017-09-22T00:48:07.481Z,0
2017-09-22T00:49:21.428Z,0
2017-09-22T00:50:35.411Z,0
2017-09-22T00:51:49.699Z,0
2017-09-22T00:53:04.356Z,0
2017-09-22T00:54:37.483Z,0
2017-09-22T00:55:51.358Z,0
2017-09-22T00:57:05.849Z,0
2017-09-22T00:58:19.419Z,0
2017-09-22T00:59:33.821Z,0
2017-09-22T01:00:47.786Z,0
2017-09-22T01:02:53.192Z,0
2017-09-22T01:04:08.504Z,0
2017-09-22T01:05:22.048Z,0
2017-09-22T01:06:35.670Z,0
2017-09-22T01:07:49.198Z,0
2017-09-22T01:09:03.270Z,0
2017-09-22T01:10:17.010Z,0
2017-09-22T01:11:30.737Z,0
2017-09-22T01:12:44.712Z,0
2017-09-22T01:13:58.635Z,0
2017-09-22T01:15:12.468Z,0
2017-09-22T01:16:26.248Z,0
2017-09-22T01:17:44.832Z,0
2017-09-22T01:20:00.030Z,0
2017-09-22T01:21:14.074Z,0
2017-09-22T01:22:27.993Z,0
2017-09-22T01:23:42.083Z,0
2017-09-22T01:24:55.746Z,0
2017-09-22T01:26:09.539Z,0
2017-09-22T01:27:24.900Z,0
2017-09-22T01:28:38.430Z,0
2017-09-22T01:29:52.610Z,0
2017-09-22T01:31:06.215Z,0
2017-09-22T01:32:19.840Z,0
2017-09-22T01:33:33.694Z,0
2017-09-22T01:34:47.643Z,0
2017-09-22T01:36:01.348Z,0
2017-09-22T01:37:14.895Z,0
2017-09-22T01:38:29.123Z,0
2017-09-22T01:39:42.981Z,0
2017-09-22T01:40:56.587Z,0
2017-09-22T01:42:10.579Z,0
2017-09-22T01:43:24.705Z,0
2017-09-22T01:44:38.281Z,0
2017-09-22T01:45:52.541Z,0
2017-09-22T01:47:06.111Z,0
2017-09-22T01:48:20.046Z,0
2017-09-22T01:49:33.925Z,0
2017-09-22T01:50:49.455Z,0
2017-09-22T01:52:03.838Z,0
2017-09-22T01:53:18.105Z,0
2017-09-22T01:54:31.887Z,0
2017-09-22T01:55:46.391Z,0
2017-09-22T01:57:00.977Z,0
2017-09-22T01:58:14.804Z,0
2017-09-22T01:59:28.467Z,0
2017-09-22T02:00:42.775Z,0
2017-09-22T02:01:56.969Z,0
2017-09-22T02:03:11.020Z,0
2017-09-22T02:04:24.989Z,0
2017-09-22T02:05:40.136Z,0
2017-09-22T02:06:54.076Z,0
2017-09-22T02:08:07.630Z,0
2017-09-22T02:09:22.384Z,0
2017-09-22T02:10:37.205Z,0
2017-09-22T02:11:50.788Z,0
2017-09-22T02:13:05.637Z,0
2017-09-22T02:14:19.522Z,0
2017-09-22T02:15:33.064Z,0
2017-09-22T02:16:47.254Z,0
2017-09-22T02:18:01.298Z,0
2017-09-22T02:19:15.777Z,0
2017-09-22T02:20:29.650Z,0
2017-09-22T02:21:43.204Z,0
2017-09-22T02:22:57.043Z,0
2017-09-22T02:24:10.857Z,0
2017-09-22T02:25:24.372Z,0
2017-09-22T02:26:37.991Z,0
2017-09-22T02:27:51.649Z,0
2017-09-22T02:29:05.696Z,0
2017-09-22T02:30:19.382Z,0
2017-09-22T02:31:32.945Z,0
2017-09-22T02:32:46.486Z,0
2017-09-22T02:34:00.121Z,0
2017-09-22T02:35:14.498Z,0
2017-09-22T02:36:28.364Z,0
2017-09-22T02:37:42.091Z,0
2017-09-22T02:38:55.826Z,0
2017-09-22T02:40:09.600Z,0
2017-09-22T02:41:23.698Z,0
2017-09-22T02:42:37.349Z,0
2017-09-22T02:43:51.035Z,0
2017-09-22T02:45:04.636Z,0
2017-09-22T02:46:18.177Z,0
2017-09-22T02:47:32.022Z,0
2017-09-22T02:48:45.555Z,0
2017-09-22T02:49:59.886Z,0
2017-09-22T02:51:13.854Z,0
2017-09-22T02:52:27.382Z,0
2017-09-22T02:53:41.274Z,0
2017-09-22T02:55:01.068Z,0
2017-09-22T02:56:15.096Z,0
2017-09-22T02:57:28.734Z,0
2017-09-22T02:58:42.433Z,0
2017-09-22T02:59:55.978Z,0
2017-09-22T03:01:09.545Z,0
2017-09-22T03:02:23.076Z,0
2017-09-22T03:03:36.736Z,0
2017-09-22T03:04:50.315Z,0
2017-09-22T03:06:04.672Z,0
2017-09-22T03:07:18.864Z,0
2017-09-22T03:08:32.461Z,0
2017-09-22T03:09:46.992Z,0
2017-09-22T03:11:00.704Z,0
2017-09-22T03:12:14.627Z,0
2017-09-22T03:13:28.175Z,0
2017-09-22T03:14:41.915Z,0
2017-09-22T03:15:55.551Z,0
2017-09-22T03:17:09.184Z,0
2017-09-22T03:18:23.005Z,0
2017-09-22T03:19:36.913Z,0
2017-09-22T03:20:50.436Z,0
2017-09-22T03:22:04.352Z,0
2017-09-22T03:23:18.230Z,0
2017-09-22T03:24:32.126Z,0
2017-09-22T03:25:45.982Z,0
2017-09-22T03:26:59.527Z,0
2017-09-22T03:28:13.369Z,0
2017-09-22T03:29:27.042Z,0
2017-09-22T03:30:40.896Z,0
2017-09-22T03:31:54.487Z,0
2017-09-22T03:33:08.084Z,0
2017-09-22T03:34:21.752Z,0
2017-09-22T03:35:35.301Z,0
2017-09-22T03:36:48.851Z,0
2017-09-22T03:38:02.504Z,0
2017-09-22T03:39:16.044Z,0
2017-09-22T03:40:29.555Z,0
2017-09-22T03:41:43.144Z,0
2017-09-22T03:42:57.537Z,0
2017-09-22T03:44:11.073Z,0
2017-09-22T03:45:24.812Z,0
2017-09-22T03:46:38.453Z,0
2017-09-22T03:47:52.029Z,0
2017-09-22T03:49:06.303Z,0
2017-09-22T03:50:19.844Z,0
2017-09-22T03:51:33.387Z,0
2017-09-22T03:52:46.970Z,0
2017-09-22T03:54:01.227Z,0
2017-09-22T03:55:23.664Z,0
2017-09-22T03:56:38.733Z,0
2017-09-22T03:57:54.200Z,0
2017-09-22T03:59:08.444Z,0
2017-09-22T04:00:22.226Z,0
2017-09-22T04:01:39.312Z,0
2017-09-22T04:02:56.884Z,0
2017-09-22T04:04:14.906Z,0
2017-09-22T04:05:28.707Z,0
2017-09-22T04:06:42.589Z,0
2017-09-22T04:07:56.268Z,0
2017-09-22T04:09:10.583Z,0
2017-09-22T04:10:24.774Z,0
2017-09-22T04:11:38.527Z,0
2017-09-22T04:12:52.151Z,0
2017-09-22T04:14:06.081Z,0
2017-09-22T04:15:20.033Z,0
2017-09-22T04:16:40.181Z,0
2017-09-22T04:17:54.217Z,0
2017-09-22T04:19:08.137Z,0
2017-09-22T04:20:22.203Z,0
2017-09-22T04:21:35.804Z,0
2017-09-22T04:22:49.342Z,0
2017-09-22T04:24:02.940Z,0
2017-09-22T04:25:17.315Z,0
2017-09-22T04:26:30.866Z,0
2017-09-22T04:27:45.084Z,0
2017-09-22T04:28:58.957Z,0
2017-09-22T04:30:12.610Z,0
2017-09-22T04:31:27.149Z,0
2017-09-22T04:32:40.792Z,0
2017-09-22T04:33:54.348Z,0
2017-09-22T04:35:07.963Z,0
2017-09-22T04:36:21.852Z,0
2017-09-22T04:37:35.790Z,0
2017-09-22T04:38:49.428Z,0
2017-09-22T04:40:03.105Z,0
2017-09-22T04:41:17.081Z,0
2017-09-22T04:42:30.749Z,0
2017-09-22T04:43:44.609Z,0
2017-09-22T04:44:59.746Z,0
2017-09-22T04:46:13.294Z,0
2017-09-22T04:47:26.814Z,4
2017-09-22T04:48:40.379Z,4
2017-09-22T04:49:54.337Z,0
2017-09-22T04:51:08.034Z,4
2017-09-22T04:52:21.570Z,0
2017-09-22T04:53:35.480Z,4
2017-09-22T04:54:49.500Z,4
2017-09-22T04:56:03.736Z,8
2017-09-22T04:57:17.366Z,8
2017-09-22T04:58:31.079Z,8
2017-09-22T04:59:45.262Z,12
2017-09-22T05:00:58.865Z,12
2017-09-22T05:02:13.059Z,20
2017-09-22T05:03:32.962Z,24
2017-09-22T05:04:47.290Z,24
2017-09-22T05:06:01.073Z,28
2017-09-22T05:07:14.674Z,36
2017-09-22T05:08:28.918Z,44
2017-09-22T05:09:44.217Z,48
2017-09-22T05:10:58.136Z,56
2017-09-22T05:12:11.867Z,60
2017-09-22T05:13:25.657Z,68
2017-09-22T05:14:39.949Z,76
2017-09-22T05:15:53.939Z,84
2017-09-22T05:17:07.545Z,96
2017-09-22T05:18:21.334Z,108
2017-09-22T05:19:35.355Z,120
2017-09-22T05:20:50.106Z,136
2017-09-22T05:22:03.962Z,152
2017-09-22T05:23:17.886Z,168
2017-09-22T05:24:31.660Z,184
2017-09-22T05:25:45.595Z,200
2017-09-22T05:26:59.518Z,216
2017-09-22T05:28:13.140Z,240
2017-09-22T05:29:27.052Z,260
2017-09-22T05:30:40.630Z,284
2017-09-22T05:31:54.209Z,312
2017-09-22T05:33:08.127Z,340
2017-09-22T05:34:21.943Z,380
2017-09-22T05:35:35.532Z,416
2017-09-22T05:36:49.950Z,444
2017-09-22T05:38:03.848Z,456
2017-09-22T05:39:17.435Z,468
2017-09-22T05:40:31.716Z,484
2017-09-22T05:41:46.111Z,512
2017-09-22T05:42:59.744Z,544
2017-09-22T05:44:13.606Z,584
2017-09-22T05:45:27.136Z,640
2017-09-22T05:46:41.387Z,704
2017-09-22T05:47:55.059Z,744
2017-09-22T05:49:08.846Z,772
2017-09-22T05:50:22.951Z,800
2017-09-22T05:51:37.126Z,840
2017-09-22T05:52:50.778Z,868
2017-09-22T05:54:04.319Z,888
2017-09-22T05:55:18.071Z,888
2017-09-22T05:56:31.606Z,888
2017-09-22T05:57:46.443Z,880
2017-09-22T05:58:59.993Z,868
2017-09-22T06:00:13.602Z,860
2017-09-22T06:01:27.635Z,852
2017-09-22T06:02:41.581Z,844
2017-09-22T06:03:55.534Z,840
2017-09-22T06:05:09.750Z,832
2017-09-22T06:06:23.348Z,832
2017-09-22T06:07:37.724Z,828
2017-09-22T06:08:52.068Z,852
2017-09-22T06:10:06.777Z,892
2017-09-22T06:11:20.751Z,892
2017-09-22T06:12:34.940Z,888
2017-09-22T06:13:48.788Z,892
2017-09-22T06:15:02.786Z,904
2017-09-22T06:16:17.465Z,928
2017-09-22T06:17:31.050Z,960
2017-09-22T06:18:45.313Z,992
2017-09-22T06:19:59.403Z,1020
2017-09-22T06:21:13.662Z,1052
2017-09-22T06:22:27.607Z,1096
2017-09-22T06:23:41.489Z,1160
2017-09-22T06:24:55.161Z,1256
2017-09-22T06:26:09.765Z,1384
2017-09-22T06:27:23.306Z,1560
2017-09-22T06:28:38.169Z,1688
2017-09-22T06:29:51.767Z,1656
2017-09-22T06:31:05.542Z,1724
2017-09-22T06:32:19.087Z,1696
2017-09-22T06:33:33.174Z,1608
2017-09-22T06:34:47.165Z,1520
2017-09-22T06:36:00.859Z,1492
2017-09-22T06:37:15.047Z,1476
2017-09-22T06:38:29.076Z,1480
2017-09-22T06:39:43.405Z,1504
2017-09-22T06:40:57.764Z,1564
2017-09-22T06:42:11.931Z,1656
2017-09-22T06:43:25.535Z,1780
2017-09-22T06:44:39.704Z,1892
2017-09-22T06:45:53.322Z,2120
2017-09-22T06:47:07.299Z,2236
2017-09-22T06:48:21.133Z,2232
2017-09-22T06:49:35.533Z,2332
2017-09-22T06:50:49.076Z,2340
2017-09-22T06:52:02.679Z,2300
2017-09-22T06:53:16.728Z,2284
2017-09-22T06:54:30.314Z,2348
2017-09-22T06:55:44.756Z,2460
2017-09-22T06:56:58.623Z,2492
2017-09-22T06:58:12.739Z,2500
2017-09-22T06:59:28.384Z,2492
2017-09-22T07:00:43.648Z,2500
2017-09-22T07:01:57.533Z,2520
2017-09-22T07:03:12.407Z,2544
2017-09-22T07:04:27.478Z,2576
2017-09-22T07:05:43.026Z,2612
2017-09-22T07:06:57.000Z,2644
2017-09-22T07:08:10.932Z,2668
2017-09-22T07:09:25.045Z,2696
2017-09-22T07:10:39.308Z,2712
2017-09-22T07:11:54.079Z,2732
2017-09-22T07:13:08.101Z,2796
2017-09-22T07:14:22.303Z,2884
2017-09-22T07:15:36.408Z,2984
2017-09-22T07:16:50.313Z,3060
2017-09-22T07:18:03.883Z,3052
2017-09-22T07:19:17.460Z,2988
2017-09-22T07:20:31.028Z,2940
2017-09-22T07:22:36.004Z,2728
2017-09-22T07:23:50.276Z,2584
2017-09-22T07:25:04.818Z,2572
2017-09-22T07:26:18.452Z,2372
2017-09-22T07:27:31.995Z,2312
2017-09-22T07:28:45.768Z,2320
2017-09-22T07:29:59.688Z,2348
2017-09-22T07:31:13.243Z,2412
2017-09-22T07:32:27.326Z,2572
2017-09-22T07:33:41.292Z,2744
2017-09-22T07:34:55.324Z,2720
2017-09-22T07:36:09.216Z,2720
2017-09-22T07:37:22.750Z,2912
2017-09-22T07:38:36.516Z,3012
2017-09-22T07:39:50.793Z,3016
2017-09-22T07:41:05.171Z,2988
2017-09-22T07:42:19.560Z,2984
2017-09-22T07:43:33.472Z,3000
2017-09-22T07:44:47.347Z,2988
2017-09-22T07:46:01.320Z,3056
2017-09-22T07:47:14.939Z,3224
2017-09-22T07:48:28.467Z,3348
2017-09-22T07:49:42.088Z,3452
2017-09-22T07:50:55.646Z,3492
2017-09-22T07:52:09.671Z,3508
2017-09-22T07:53:23.718Z,3484
2017-09-22T07:54:37.937Z,3420
2017-09-22T07:55:51.525Z,3220
2017-09-22T07:57:05.394Z,3116
2017-09-22T07:58:19.408Z,2848
2017-09-22T07:59:33.276Z,2664
2017-09-22T08:00:47.055Z,2512
2017-09-22T08:02:00.686Z,2512
2017-09-22T08:03:14.234Z,2520
2017-09-22T08:04:27.797Z,2600
2017-09-22T08:05:41.758Z,2728
2017-09-22T08:06:55.994Z,2896
2017-09-22T08:08:10.008Z,3036
2017-09-22T08:09:49.230Z,3088
2017-09-22T08:11:02.892Z,3124
2017-09-22T08:12:17.301Z,3236
2017-09-22T08:13:30.848Z,3288
2017-09-22T08:14:44.397Z,3324
2017-09-22T08:15:59.520Z,3380
2017-09-22T08:17:13.210Z,3396
2017-09-22T08:18:27.519Z,3344
2017-09-22T08:19:42.568Z,3288
2017-09-22T08:20:56.712Z,3328
2017-09-22T08:22:11.198Z,3312
2017-09-22T08:23:24.806Z,3100
2017-09-22T08:24:39.038Z,3280
2017-09-22T08:25:52.699Z,3004
2017-09-22T08:27:06.303Z,2756
2017-09-22T08:28:20.049Z,2780
2017-09-22T08:29:33.604Z,3112
2017-09-22T08:30:47.480Z,3064
2017-09-22T08:32:01.758Z,3100
2017-09-22T08:33:15.974Z,3176
2017-09-22T08:34:30.311Z,3152
2017-09-22T08:35:44.912Z,3128
2017-09-22T08:36:59.182Z,3296
2017-09-22T08:38:13.191Z,3392
2017-09-22T08:39:26.729Z,3460
2017-09-22T08:40:40.614Z,3468
2017-09-22T08:41:54.717Z,3424
2017-09-22T08:43:08.704Z,3328
2017-09-22T08:44:22.795Z,2968
2017-09-22T08:45:36.406Z,2872
2017-09-22T08:46:50.501Z,2980
2017-09-22T08:48:04.135Z,2744
2017-09-22T08:49:18.470Z,2600
2017-09-22T08:50:32.325Z,2688
2017-09-22T08:51:46.150Z,2720
2017-09-22T08:53:06.541Z,2784
2017-09-22T08:54:20.436Z,2876
2017-09-22T08:55:34.274Z,2880
2017-09-22T08:56:48.077Z,2880
2017-09-22T08:58:02.212Z,2872
2017-09-22T08:59:16.711Z,2872
2017-09-22T09:00:31.075Z,2888
2017-09-22T09:01:45.431Z,2900
2017-09-22T09:02:59.236Z,2776
2017-09-22T09:04:12.835Z,2696
2017-09-22T09:05:26.695Z,2708
2017-09-22T09:06:40.256Z,2612
2017-09-22T09:07:54.303Z,2572
2017-09-22T09:09:08.044Z,2724
2017-09-22T09:10:21.909Z,2956
2017-09-22T09:11:35.877Z,2968
2017-09-22T09:12:50.052Z,2964
2017-09-22T09:14:04.255Z,2984
2017-09-22T09:15:17.882Z,2900
2017-09-22T09:16:32.745Z,2840
2017-09-22T09:17:46.321Z,2836
2017-09-22T09:19:00.475Z,2876
2017-09-22T09:20:14.020Z,2924
2017-09-22T09:21:27.906Z,2960
2017-09-22T09:22:42.119Z,2976
2017-09-22T09:23:56.027Z,3028
2017-09-22T09:25:09.551Z,3072
2017-09-22T09:26:23.188Z,3088
2017-09-22T09:27:36.756Z,3036
2017-09-22T09:28:50.665Z,3028
2017-09-22T09:30:04.221Z,3052
2017-09-22T09:31:17.967Z,3044
2017-09-22T09:32:31.936Z,3068
2017-09-22T09:33:45.589Z,3056
2017-09-22T09:34:59.308Z,3120
2017-09-22T09:36:13.125Z,3156
2017-09-22T09:37:26.728Z,3164
2017-09-22T09:38:40.732Z,3152
2017-09-22T09:39:54.995Z,3156
2017-09-22T09:41:10.659Z,3164
2017-09-22T09:42:25.648Z,3188
2017-09-22T09:43:39.722Z,3188
2017-09-22T09:44:53.727Z,3180
2017-09-22T09:46:07.405Z,3208
2017-09-22T09:47:21.642Z,3236
2017-09-22T09:48:35.257Z,3280
2017-09-22T09:49:49.123Z,3336
2017-09-22T09:51:03.137Z,3508
2017-09-22T09:52:17.039Z,3600
2017-09-22T09:53:30.993Z,3648
2017-09-22T09:54:44.789Z,3596
2017-09-22T09:55:59.010Z,3552
2017-09-22T09:57:13.045Z,3528
2017-09-22T09:58:26.614Z,3540
2017-09-22T09:59:40.149Z,3416
2017-09-22T10:00:53.729Z,3380
2017-09-22T10:02:07.552Z,3380
2017-09-22T10:03:22.206Z,3324
2017-09-22T10:04:35.763Z,3252
2017-09-22T10:05:49.331Z,3188
2017-09-22T10:07:03.565Z,3128
2017-09-22T10:08:18.395Z,3092
2017-09-22T10:09:32.260Z,3052
2017-09-22T10:10:46.388Z,2996
2017-09-22T10:12:00.312Z,2980
2017-09-22T10:13:14.396Z,2944
2017-09-22T10:14:29.025Z,2924
2017-09-22T10:15:43.068Z,2892
2017-09-22T10:16:57.231Z,2864
2017-09-22T10:18:11.328Z,2824
2017-09-22T10:19:24.890Z,2768
2017-09-22T10:20:38.923Z,2712
2017-09-22T10:21:53.034Z,2656
2017-09-22T10:23:07.140Z,2600
2017-09-22T10:24:21.379Z,2540
2017-09-22T10:25:35.188Z,2604
2017-09-22T10:26:48.727Z,2620
2017-09-22T10:28:02.433Z,2592
2017-09-22T10:29:16.284Z,2576
2017-09-22T10:30:30.549Z,2524
2017-09-22T10:31:44.294Z,2440
2017-09-22T10:32:57.914Z,2404
2017-09-22T10:34:11.901Z,2392
2017-09-22T10:35:25.532Z,2368
2017-09-22T10:36:39.228Z,2368
2017-09-22T10:37:53.404Z,2364
2017-09-22T10:39:07.313Z,2396
2017-09-22T10:40:21.308Z,2376
2017-09-22T10:41:35.193Z,2356
2017-09-22T10:42:49.293Z,2304
2017-09-22T10:44:03.257Z,2280
2017-09-22T10:45:17.495Z,2268
2017-09-22T10:46:31.562Z,2264
2017-09-22T10:47:45.124Z,2296
2017-09-22T10:48:58.648Z,2388
2017-09-22T10:50:12.895Z,2440
2017-09-22T10:51:27.724Z,2512
2017-09-22T10:52:43.264Z,2632
2017-09-22T10:53:57.944Z,2792
2017-09-22T10:55:12.009Z,2936
2017-09-22T10:56:25.843Z,3044
2017-09-22T10:57:39.829Z,3084
2017-09-22T10:58:53.902Z,3104
2017-09-22T11:00:07.872Z,3108
2017-09-22T11:01:21.523Z,3080
2017-09-22T11:02:35.800Z,3124
2017-09-22T11:03:49.433Z,3140
2017-09-22T11:05:03.663Z,3024
2017-09-22T11:06:17.690Z,3072
2017-09-22T11:07:31.337Z,2796
2017-09-22T11:08:45.228Z,2912
2017-09-22T11:09:59.321Z,2880
2017-09-22T11:11:13.696Z,2988
2017-09-22T11:12:27.361Z,3116
2017-09-22T11:13:41.102Z,3136
2017-09-22T11:14:55.090Z,3132
2017-09-22T11:16:09.904Z,3088
2017-09-22T11:17:23.620Z,3016
2017-09-22T11:18:37.777Z,2940
2017-09-22T11:19:52.630Z,2848
2017-09-22T11:21:07.033Z,2756
2017-09-22T11:22:21.315Z,2708
2017-09-22T11:23:35.290Z,2676
2017-09-22T11:24:49.121Z,2648
2017-09-22T11:26:03.230Z,2628
2017-09-22T11:27:17.233Z,2612
2017-09-22T11:28:30.994Z,2604
2017-09-22T11:29:45.244Z,2592
2017-09-22T11:30:59.812Z,2580
2017-09-22T11:32:14.291Z,2572
2017-09-22T11:33:29.618Z,2544
2017-09-22T11:34:43.301Z,2520
2017-09-22T11:35:57.992Z,2496
2017-09-22T11:37:11.647Z,2492
2017-09-22T11:38:25.746Z,2476
2017-09-22T11:39:39.978Z,2452
2017-09-22T11:40:54.078Z,2428
2017-09-22T11:42:08.444Z,2392
2017-09-22T11:43:23.470Z,2356
2017-09-22T11:44:37.447Z,2332
2017-09-22T11:45:51.115Z,2300
2017-09-22T11:47:05.398Z,2264
2017-09-22T11:48:20.102Z,2244
2017-09-22T11:49:33.776Z,2232
2017-09-22T11:50:47.699Z,2228
2017-09-22T11:52:01.611Z,2252
2017-09-22T11:53:15.902Z,2272
2017-09-22T11:54:29.472Z,2316
2017-09-22T11:55:43.017Z,2356
2017-09-22T11:56:56.653Z,2376
2017-09-22T11:58:10.920Z,2380
2017-09-22T11:59:24.732Z,2296
2017-09-22T12:00:38.573Z,2332
2017-09-22T12:01:52.546Z,2356
2017-09-22T12:03:07.456Z,2360
2017-09-22T12:04:21.492Z,2340
2017-09-22T12:05:35.315Z,2304
2017-09-22T12:06:48.943Z,2328
2017-09-22T12:08:02.618Z,2312
2017-09-22T12:09:16.152Z,2288
2017-09-22T12:10:29.697Z,2220
2017-09-22T12:11:43.636Z,2156
2017-09-22T12:12:57.669Z,2080
2017-09-22T12:14:11.424Z,2044
2017-09-22T12:15:25.194Z,2068
2017-09-22T12:16:39.379Z,2132
2017-09-22T12:17:53.871Z,2164
2017-09-22T12:19:08.910Z,2200
2017-09-22T12:20:22.866Z,2212
2017-09-22T12:21:36.687Z,2208
2017-09-22T12:22:50.838Z,2232
2017-09-22T12:24:04.702Z,2228
2017-09-22T12:25:18.539Z,2220
2017-09-22T12:26:32.335Z,2224
2017-09-22T12:27:46.789Z,2216
2017-09-22T12:29:00.853Z,2196
2017-09-22T12:30:14.722Z,2176
2017-09-22T12:31:28.712Z,2176
2017-09-22T12:32:42.627Z,2128
2017-09-22T12:33:56.672Z,2068
2017-09-22T12:35:10.266Z,2104
2017-09-22T12:36:23.872Z,2112
2017-09-22T12:37:37.503Z,2124
2017-09-22T12:38:52.043Z,2132
2017-09-22T12:40:05.670Z,2148
2017-09-22T12:41:19.589Z,2200
2017-09-22T12:42:33.429Z,2156
2017-09-22T12:43:48.015Z,2116
2017-09-22T12:45:02.135Z,2140
2017-09-22T12:46:16.068Z,2208
2017-09-22T12:47:29.695Z,2184
2017-09-22T12:48:43.489Z,2164
2017-09-22T12:49:57.748Z,1984
2017-09-22T12:51:11.324Z,1920
2017-09-22T12:52:25.378Z,1968
2017-09-22T12:53:39.004Z,2044
2017-09-22T12:54:52.698Z,2132
2017-09-22T12:56:06.558Z,2264
2017-09-22T12:57:20.119Z,2440
2017-09-22T12:58:33.763Z,2532
2017-09-22T12:59:47.926Z,2512
2017-09-22T13:01:02.525Z,2444
2017-09-22T13:02:16.372Z,2424
2017-09-22T13:03:30.341Z,2532
2017-09-22T13:04:44.778Z,2592
2017-09-22T13:05:58.629Z,2648
2017-09-22T13:07:12.312Z,2828
2017-09-22T13:08:26.846Z,2860
2017-09-22T13:09:40.830Z,2952
2017-09-22T13:10:54.427Z,3180
2017-09-22T13:12:08.229Z,3340
2017-09-22T13:13:21.798Z,3520
2017-09-22T13:14:36.054Z,3724
2017-09-22T13:15:50.167Z,3960
2017-09-22T13:17:04.192Z,4180
2017-09-22T13:18:18.005Z,4096
2017-09-22T13:19:32.570Z,3968
2017-09-22T13:20:47.431Z,3828
2017-09-22T13:22:01.340Z,3780
2017-09-22T13:23:15.461Z,3864
2017-09-22T13:24:29.906Z,3768
2017-09-22T13:25:44.493Z,3588
2017-09-22T13:26:58.360Z,3548
2017-09-22T13:28:12.094Z,3572
2017-09-22T13:29:25.806Z,3712
2017-09-22T13:30:40.110Z,3824
2017-09-22T13:31:53.876Z,3844
2017-09-22T13:33:08.642Z,3740
2017-09-22T13:34:22.282Z,3496
2017-09-22T13:35:36.100Z,3392
2017-09-22T13:36:50.474Z,3452
2017-09-22T13:38:04.373Z,3400
2017-09-22T13:39:18.468Z,3276
2017-09-22T13:40:32.546Z,3328
2017-09-22T13:41:46.621Z,3404
2017-09-22T13:43:00.526Z,3372
2017-09-22T13:44:14.855Z,3312
2017-09-22T13:45:29.448Z,3372
2017-09-22T13:46:43.809Z,3192
2017-09-22T13:47:57.484Z,3248
2017-09-22T13:49:11.134Z,3360
2017-09-22T13:50:25.829Z,3416
2017-09-22T13:51:40.574Z,3280
2017-09-22T13:52:54.709Z,3060
2017-09-22T13:58:23.385Z,3220
2017-09-22T13:59:37.442Z,3328
2017-09-22T14:00:51.506Z,3312
2017-09-22T14:02:05.960Z,3016
2017-09-22T14:29:32.020Z,2216
2017-09-22T14:30:47.501Z,2564
2017-09-22T14:32:01.113Z,2744
2017-09-22T14:33:15.556Z,2672
2017-09-22T14:34:29.218Z,2536
2017-09-22T14:35:43.063Z,2412
2017-09-22T14:36:56.598Z,2292
2017-09-22T14:38:10.345Z,2196
2017-09-22T14:39:24.015Z,2088
2017-09-22T14:40:37.729Z,2048
2017-09-22T14:41:51.643Z,1980
2017-09-22T14:43:05.789Z,1920
2017-09-22T14:44:20.089Z,1852
2017-09-22T14:45:35.406Z,1768
2017-09-22T14:46:49.119Z,1688
2017-09-22T14:48:03.595Z,1628
2017-09-22T14:49:18.712Z,1588
2017-09-22T14:50:32.313Z,1552
2017-09-22T14:51:46.398Z,1504
2017-09-22T14:53:00.114Z,1412
2017-09-22T14:54:14.121Z,1308
2017-09-22T14:55:28.911Z,1252
2017-09-22T14:56:42.926Z,1220
2017-09-22T14:57:56.663Z,1240
2017-09-22T14:59:11.419Z,1288
2017-09-22T15:00:25.406Z,1356
2017-09-22T15:01:38.936Z,1452
2017-09-22T15:02:52.610Z,1532
2017-09-22T15:04:06.489Z,1644
2017-09-22T15:05:20.327Z,1692
2017-09-22T15:06:34.247Z,1720
2017-09-22T15:07:48.308Z,1728
2017-09-22T15:09:02.400Z,1760
2017-09-22T15:10:16.164Z,1788
2017-09-22T15:11:30.110Z,1816
2017-09-22T15:12:44.358Z,1820
2017-09-22T15:13:57.922Z,1804
2017-09-22T15:15:11.489Z,1784
2017-09-22T15:16:25.201Z,1808
2017-09-22T15:17:38.784Z,1836
2017-09-22T15:18:52.926Z,1840
2017-09-22T15:20:06.468Z,1820
2017-09-22T15:21:20.313Z,1796
2017-09-22T15:22:34.336Z,1764
2017-09-22T15:23:48.031Z,1752
2017-09-22T15:25:01.982Z,1736
2017-09-22T15:26:16.317Z,1700
2017-09-22T15:27:30.953Z,1656
2017-09-22T15:28:45.305Z,1604
2017-09-22T15:29:59.480Z,1560
2017-09-22T15:31:13.394Z,1524
2017-09-22T15:32:27.393Z,1496
2017-09-22T15:33:41.891Z,1472
2017-09-22T15:34:56.644Z,1464
2017-09-22T15:36:10.929Z,1456
2017-09-22T15:37:25.245Z,1444
2017-09-22T15:38:39.422Z,1396
2017-09-22T15:39:53.803Z,1372
2017-09-22T15:41:08.124Z,1344
2017-09-22T15:42:22.043Z,1348
2017-09-22T15:43:35.716Z,1324
2017-09-22T15:44:49.435Z,1288
2017-09-22T15:46:03.878Z,1284
2017-09-22T15:47:17.867Z,1316
2017-09-22T15:48:31.607Z,1332
2017-09-22T15:49:45.187Z,1308
2017-09-22T15:50:58.813Z,1228
2017-09-22T15:52:12.469Z,1116
2017-09-22T15:53:26.529Z,1096
2017-09-22T15:54:40.257Z,1136
2017-09-22T15:55:53.970Z,1200
2017-09-22T15:57:08.128Z,1232
2017-09-22T15:58:22.120Z,1228
2017-09-22T15:59:36.102Z,1180
2017-09-22T16:00:50.633Z,1112
2017-09-22T16:02:05.179Z,1048
2017-09-22T16:03:19.258Z,1000
2017-09-22T16:04:33.253Z,976
2017-09-22T16:05:46.974Z,964
2017-09-22T16:07:00.614Z,932
2017-09-22T16:08:14.393Z,880
2017-09-22T16:09:27.961Z,816
2017-09-22T16:10:41.507Z,772
2017-09-22T16:11:55.567Z,736
2017-09-22T16:13:09.151Z,720
2017-09-22T16:14:23.248Z,732
2017-09-22T16:15:37.485Z,740
2017-09-22T16:16:54.555Z,744
2017-09-22T16:18:08.545Z,716
2017-09-22T16:19:22.414Z,688
2017-09-22T16:20:36.360Z,648
2017-09-22T16:21:50.538Z,628
2017-09-22T16:23:04.562Z,640
2017-09-22T16:24:18.387Z,660
2017-09-22T16:25:32.000Z,672
2017-09-22T16:26:46.290Z,680
2017-09-22T16:27:59.993Z,660
2017-09-22T16:29:13.524Z,620
2017-09-22T16:30:27.220Z,576
2017-09-22T16:31:41.185Z,548
2017-09-22T16:32:55.283Z,524
2017-09-22T16:34:09.044Z,504
2017-09-22T16:35:22.624Z,488
2017-09-22T16:36:36.825Z,468
2017-09-22T16:37:51.217Z,440
2017-09-22T16:39:06.310Z,416
2017-09-22T16:40:19.970Z,408
2017-09-22T16:41:34.394Z,404
2017-09-22T16:42:49.020Z,404
2017-09-22T16:44:02.978Z,412
2017-09-22T16:45:17.018Z,420
2017-09-22T16:46:30.784Z,428
2017-09-22T16:47:44.765Z,428
2017-09-22T16:48:59.558Z,432
2017-09-22T16:50:13.611Z,428
2017-09-22T16:51:27.449Z,428
2017-09-22T16:53:13.262Z,412
2017-09-22T16:54:27.274Z,392
2017-09-22T16:55:40.897Z,368
2017-09-22T16:56:54.876Z,344
2017-09-22T16:58:09.356Z,328
2017-09-22T16:59:23.337Z,312
2017-09-22T17:00:37.046Z,300
2017-09-22T17:01:50.901Z,288
2017-09-22T17:03:06.560Z,276
2017-09-22T17:04:20.481Z,260
2017-09-22T17:05:34.206Z,244
2017-09-22T17:06:48.569Z,232
2017-09-22T17:08:02.216Z,216
2017-09-22T17:09:16.232Z,196
2017-09-22T17:10:30.165Z,184
2017-09-22T17:11:43.771Z,168
2017-09-22T17:12:57.691Z,148
2017-09-22T17:14:11.585Z,132
2017-09-22T17:15:25.658Z,124
2017-09-22T17:16:39.610Z,112
2017-09-22T17:17:53.329Z,100
2017-09-22T17:19:06.934Z,88
2017-09-22T17:20:21.551Z,84
2017-09-22T17:21:36.040Z,76
2017-09-22T17:22:49.634Z,68
2017-09-22T17:24:03.209Z,60
2017-09-22T17:25:17.106Z,48
2017-09-22T17:26:31.024Z,40
2017-09-22T17:27:44.644Z,36
2017-09-22T17:28:58.431Z,28
2017-09-22T17:30:12.265Z,24
2017-09-22T17:31:26.234Z,20
2017-09-22T17:32:39.775Z,16
2017-09-22T17:33:53.544Z,16
2017-09-22T17:35:07.850Z,12
2017-09-22T17:36:21.609Z,8
2017-09-22T17:37:35.188Z,8
2017-09-22T17:38:48.812Z,4
2017-09-22T17:40:02.446Z,4
2017-09-22T17:41:16.726Z,4
2017-09-22T17:42:30.829Z,4
2017-09-22T17:43:45.300Z,0
2017-09-22T17:44:59.342Z,0
2017-09-22T17:46:13.817Z,4
2017-09-22T17:47:27.376Z,0
2017-09-22T17:48:41.126Z,0